Terminal Aerodrome Forecast
Issued by NWS

Home | Current Version | Previous Version | Text Only | Print | Product List | Glossary On
Versions: 1 2 3 4 5 6 7 8 9 10 11 12 13 14
000
FTUS46 KLOX 281700
TAFWJF
TAF
KWJF 281740Z 2818/0118 26013KT P6SM SCT120 BKN250
     FM282200 25022G32KT P6SM -SHRA SCT025 BKN040
     FM010300 25014G22KT 6SM -SHRA VCTS BKN025CB OVC035
     FM010800 26010KT 6SM -SHRA VCTS BKN025CB OVC040=

USA.gov is the U.S. government's official web portal to all federal, state and local government web resources and services.